Primrose, Texas
Current Conditions -  °F | °C
As of 9:53 AM on Friday 19 Dec 2014 (Local Time) from KTYR Reporting Station
Haze Haze  
Wind Chill: 44°   Ceiling: 500
Heat Index: 48°   Visibility: 6mi
Dew Point: 46°   Wind: 8mph
Humidity: 93%   Direction: 70°ENE
Pressure: 30.17"   Gusts: NA
Location:  32.416°N, 95.6606°W
Report Text: KTYR 191553Z 07007KT 6SM BR OVC005 09/08 A3017 RMK AO2 RAE37 SLP213 P0004 T00890078
Loading
Personal Weather Stations






























Interactive Weather Map New forecast layout! Learn more

10-Day Weather Forecast

Advertisements
Track Severe Weather on mobile